createdAt,value
2022-10-11T00:02:26.196Z,99.90
2022-10-11T00:04:53.903Z,99.90
2022-10-11T00:07:21.613Z,99.90
2022-10-11T00:09:48.974Z,99.90
2022-10-11T00:12:16.352Z,99.90
2022-10-11T00:14:43.694Z,99.90
2022-10-11T00:17:11.093Z,99.90
2022-10-11T00:19:38.481Z,99.90
2022-10-11T00:22:05.852Z,99.90
2022-10-11T00:24:33.243Z,99.90
2022-10-11T00:27:00.561Z,99.90
2022-10-11T00:29:27.955Z,99.90
2022-10-11T00:31:55.315Z,99.90
2022-10-11T00:34:22.932Z,99.90
2022-10-11T00:36:50.320Z,99.90
2022-10-11T00:39:17.783Z,99.90
2022-10-11T00:41:45.193Z,99.90
2022-10-11T00:44:21.944Z,99.90
2022-10-11T00:47:00.118Z,99.90
2022-10-11T00:49:45.534Z,99.90
2022-10-11T00:52:37.229Z,99.90
2022-10-11T00:55:12.428Z,99.90
2022-10-11T00:57:43.228Z,99.90
2022-10-11T01:00:13.705Z,99.90
2022-10-11T01:02:42.062Z,99.90
2022-10-11T01:05:28.640Z,99.90
2022-10-11T01:08:02.037Z,99.90
2022-10-11T01:10:29.643Z,99.90
2022-10-11T01:13:24.640Z,99.90
2022-10-11T01:16:16.084Z,99.90
2022-10-11T01:18:49.541Z,99.90
2022-10-11T01:21:39.651Z,99.90
2022-10-11T01:24:24.780Z,99.90
2022-10-11T01:27:19.109Z,99.90
2022-10-11T01:30:10.957Z,99.90
2022-10-11T01:32:44.188Z,99.90
2022-10-11T01:35:32.217Z,99.90
2022-10-11T01:38:12.074Z,99.90
2022-10-11T01:41:12.935Z,99.90
2022-10-11T01:43:42.302Z,99.90
2022-10-11T01:46:11.293Z,99.90
2022-10-11T01:48:54.239Z,99.90
2022-10-11T01:51:25.059Z,99.90
2022-10-11T01:54:18.645Z,99.90
2022-10-11T01:57:03.896Z,99.90
2022-10-11T01:59:57.244Z,99.90
2022-10-11T02:02:46.880Z,99.90
2022-10-11T02:05:35.211Z,99.90
2022-10-11T02:08:09.385Z,99.90
2022-10-11T02:11:06.051Z,99.90
2022-10-11T02:13:41.114Z,99.90
2022-10-11T02:16:14.530Z,99.90
2022-10-11T02:18:50.038Z,99.90
2022-10-11T02:21:20.627Z,99.90
2022-10-11T02:24:12.812Z,99.90
2022-10-11T02:26:44.029Z,99.90
2022-10-11T02:29:14.326Z,99.90
2022-10-11T02:31:43.390Z,99.90
2022-10-11T02:34:33.175Z,99.90
2022-10-11T02:37:20.221Z,99.90
2022-10-11T02:40:02.161Z,99.90
2022-10-11T02:42:36.514Z,99.90
2022-10-11T02:45:12.472Z,99.90
2022-10-11T02:47:41.532Z,99.90
2022-10-11T02:50:11.151Z,99.90
2022-10-11T02:52:38.783Z,99.90
2022-10-11T02:55:07.155Z,99.90
2022-10-11T02:57:34.507Z,99.90
2022-10-11T03:00:02.008Z,99.90
2022-10-11T03:02:29.432Z,99.90
2022-10-11T03:04:57.100Z,99.90
2022-10-11T03:07:24.528Z,99.90
2022-10-11T03:09:51.894Z,99.90
2022-10-11T03:12:19.455Z,99.90
2022-10-11T03:14:46.779Z,99.90
2022-10-11T03:17:35.073Z,99.90
2022-10-11T03:20:01.583Z,99.90
2022-10-11T03:22:28.948Z,99.90
2022-10-11T03:25:00.988Z,99.90
2022-10-11T03:27:31.158Z,99.90
2022-10-11T03:29:58.904Z,99.90
2022-10-11T03:32:26.315Z,99.90
2022-10-11T03:34:53.781Z,99.90
2022-10-11T03:37:21.167Z,99.90
2022-10-11T03:39:48.808Z,99.90
2022-10-11T03:42:16.859Z,99.90
2022-10-11T03:44:44.252Z,99.90
2022-10-11T03:47:12.789Z,99.90
2022-10-11T03:49:43.628Z,99.90
2022-10-11T03:52:11.803Z,99.90
2022-10-11T03:54:39.169Z,99.90
2022-10-11T03:57:06.979Z,99.90
2022-10-11T03:59:34.324Z,99.90
2022-10-11T04:02:01.751Z,99.90
2022-10-11T04:04:29.629Z,99.90
2022-10-11T04:06:57.027Z,99.90
2022-10-11T04:09:24.431Z,99.90
2022-10-11T04:11:51.819Z,99.90
2022-10-11T04:14:19.206Z,99.90
2022-10-11T04:16:46.629Z,99.90
2022-10-11T04:19:13.992Z,99.90
2022-10-11T04:21:41.450Z,99.90
2022-10-11T04:24:11.778Z,99.90
2022-10-11T04:26:39.170Z,99.90
2022-10-11T04:29:06.529Z,99.90
2022-10-11T04:31:33.977Z,99.90
2022-10-11T04:34:01.443Z,99.90
2022-10-11T04:36:28.848Z,99.90
2022-10-11T04:38:57.272Z,99.90
2022-10-11T04:41:24.600Z,99.90
2022-10-11T04:43:52.017Z,99.90
2022-10-11T04:46:19.353Z,99.90
2022-10-11T04:48:46.713Z,99.90
2022-10-11T04:51:14.172Z,99.90
2022-10-11T04:53:41.592Z,99.90
2022-10-11T04:56:14.959Z,99.90
2022-10-11T04:58:42.892Z,99.90
2022-10-11T05:01:10.983Z,99.90
2022-10-11T05:03:38.520Z,99.90
2022-10-11T05:06:06.359Z,99.90
2022-10-11T05:08:34.192Z,99.90
2022-10-11T05:11:05.053Z,99.90
2022-10-11T05:13:33.661Z,99.90
2022-10-11T05:16:03.345Z,99.90
2022-10-11T05:18:33.106Z,99.90
2022-10-11T05:21:04.889Z,99.90
2022-10-11T05:23:34.081Z,99.90
2022-10-11T05:26:02.838Z,99.90
2022-10-11T05:28:30.783Z,99.90
2022-10-11T05:30:58.453Z,99.90
2022-10-11T05:33:26.125Z,99.90
2022-10-11T05:38:21.601Z,99.90
2022-10-11T05:40:49.249Z,99.90
2022-10-11T05:43:16.675Z,99.90
2022-10-11T05:45:45.034Z,99.90
2022-10-11T05:48:12.640Z,99.90
2022-10-11T05:50:41.024Z,99.90
2022-10-11T05:53:08.434Z,99.90
2022-10-11T05:55:40.645Z,99.90
2022-10-11T05:58:10.222Z,99.90
2022-10-11T06:00:38.036Z,99.90
2022-10-11T06:03:07.895Z,99.90
2022-10-11T06:05:35.936Z,99.90
2022-10-11T06:08:06.041Z,99.90
2022-10-11T06:10:33.471Z,99.90
2022-10-11T06:13:01.118Z,99.90
2022-10-11T06:15:28.659Z,99.90
2022-10-11T06:17:56.366Z,99.90
2022-10-11T06:20:23.807Z,99.90
2022-10-11T06:22:51.168Z,99.90
2022-10-11T06:25:18.513Z,99.90
2022-10-11T06:27:45.906Z,99.90
2022-10-11T06:30:14.083Z,99.90
2022-10-11T06:32:41.430Z,99.90
2022-10-11T06:35:09.090Z,99.90
2022-10-11T06:37:36.574Z,99.90
2022-10-11T06:40:04.367Z,99.90
2022-10-11T06:42:31.802Z,99.90
2022-10-11T06:44:59.170Z,99.90
2022-10-11T06:47:26.833Z,99.90
2022-10-11T06:49:54.480Z,99.90
2022-10-11T06:52:22.003Z,99.90
2022-10-11T06:54:49.536Z,99.90
2022-10-11T06:57:16.912Z,99.90
2022-10-11T06:59:44.353Z,99.90
2022-10-11T07:02:11.825Z,99.90
2022-10-11T07:04:39.394Z,99.90
2022-10-11T07:07:06.777Z,99.90
2022-10-11T07:09:34.750Z,99.90
2022-10-11T07:12:02.186Z,99.90
2022-10-11T07:14:29.840Z,99.90
2022-10-11T07:16:58.086Z,99.90
2022-10-11T07:19:25.527Z,99.90
2022-10-11T07:21:52.875Z,99.90
2022-10-11T07:24:20.452Z,99.90
2022-10-11T07:26:47.841Z,99.90
2022-10-11T07:29:15.221Z,99.90
2022-10-11T07:31:43.685Z,99.90
2022-10-11T07:34:11.541Z,99.90
2022-10-11T07:36:38.992Z,99.90
2022-10-11T07:39:07.480Z,99.90
2022-10-11T07:41:35.259Z,99.90
2022-10-11T07:44:03.301Z,99.90
2022-10-11T07:46:30.833Z,99.90
2022-10-11T07:48:58.426Z,99.90
2022-10-11T07:51:26.393Z,99.90
2022-10-11T07:53:56.009Z,99.90
2022-10-11T07:56:26.902Z,99.90
2022-10-11T07:58:57.398Z,99.90
2022-10-11T08:01:25.685Z,99.90
2022-10-11T08:03:54.144Z,99.90
2022-10-11T08:06:23.461Z,99.90
2022-10-11T08:08:50.817Z,99.90
2022-10-11T08:11:35.847Z,99.90
2022-10-11T08:14:08.582Z,99.90
2022-10-11T08:16:36.598Z,99.90
2022-10-11T08:19:04.304Z,99.90
2022-10-11T08:21:32.310Z,99.90
2022-10-11T08:24:01.327Z,99.90
2022-10-11T08:26:28.783Z,99.90
2022-10-11T08:28:56.313Z,99.90
2022-10-11T08:31:23.779Z,99.90
2022-10-11T08:33:51.182Z,99.90
2022-10-11T08:36:18.519Z,99.90
2022-10-11T08:38:45.965Z,99.90
2022-10-11T08:41:28.378Z,99.90
2022-10-11T08:44:17.454Z,99.90
2022-10-11T08:46:51.371Z,99.90
2022-10-11T08:49:25.748Z,99.90
2022-10-11T08:52:00.564Z,99.90
2022-10-11T08:54:57.985Z,99.90
2022-10-11T08:57:28.716Z,99.90
2022-10-11T09:00:00.701Z,99.90
2022-10-11T09:03:07.048Z,99.90
2022-10-11T09:05:47.685Z,99.90
2022-10-11T09:08:25.505Z,99.90
2022-10-11T09:10:57.286Z,99.90
2022-10-11T09:13:43.897Z,99.90
2022-10-11T09:16:44.021Z,99.90
2022-10-11T09:19:29.636Z,99.90
2022-10-11T09:22:02.777Z,99.10
2022-10-11T09:24:54.558Z,99.90
2022-10-11T09:27:57.310Z,99.90
2022-10-11T09:30:20.174Z,99.90
2022-10-11T09:33:08.605Z,99.90
2022-10-11T09:35:49.689Z,99.60
2022-10-11T09:38:38.708Z,99.90
2022-10-11T09:41:38.474Z,99.90
2022-10-11T09:44:07.615Z,99.70
2022-10-11T09:46:40.384Z,98.80
2022-10-11T09:49:12.199Z,98.90
2022-10-11T09:51:43.562Z,98.20
2022-10-11T09:54:11.012Z,97.70
2022-10-11T09:56:43.841Z,97.60
2022-10-11T09:59:34.432Z,97.70
2022-10-11T10:02:14.334Z,97.00
2022-10-11T10:04:53.831Z,97.00
2022-10-11T10:07:21.397Z,96.90
2022-10-11T10:09:49.735Z,96.50
2022-10-11T10:12:29.350Z,96.60
2022-10-11T10:15:07.160Z,96.50
2022-10-11T10:17:36.143Z,96.80
2022-10-11T10:20:05.734Z,96.10
2022-10-11T10:22:35.659Z,96.40
2022-10-11T10:25:07.960Z,96.30
2022-10-11T10:27:35.585Z,96.50
2022-10-11T10:30:16.220Z,95.60
2022-10-11T10:32:48.215Z,95.90
2022-10-11T10:35:34.533Z,96.60
2022-10-11T10:38:40.410Z,97.00
2022-10-11T10:41:14.807Z,95.00
2022-10-11T10:43:45.567Z,96.30
2022-10-11T10:46:37.098Z,95.30
2022-10-11T10:49:51.855Z,94.50
2022-10-11T10:52:43.180Z,93.90
2022-10-11T10:55:39.712Z,93.50
2022-10-11T10:58:13.990Z,93.50
2022-10-11T11:01:19.260Z,94.00
2022-10-11T11:03:52.177Z,93.80
2022-10-11T11:06:34.190Z,93.50
2022-10-11T11:09:20.188Z,93.40
2022-10-11T11:12:40.644Z,93.40
2022-10-11T11:15:23.795Z,94.00
2022-10-11T11:18:13.493Z,92.70
2022-10-11T11:20:53.145Z,92.90
2022-10-11T11:23:20.530Z,93.80
2022-10-11T11:26:03.508Z,92.60
2022-10-11T11:28:52.950Z,93.50
2022-10-11T11:31:38.785Z,93.20
2022-10-11T11:34:37.966Z,93.40
2022-10-11T11:37:27.242Z,93.60
2022-10-11T11:39:59.663Z,92.50
2022-10-11T11:42:39.464Z,92.60
2022-10-11T11:45:21.483Z,92.40
2022-10-11T11:48:02.079Z,92.30
2022-10-11T11:50:36.931Z,92.40
2022-10-11T11:53:14.636Z,92.20
2022-10-11T11:55:55.972Z,92.30
2022-10-11T11:58:45.251Z,92.90
2022-10-11T12:01:48.522Z,92.50
2022-10-11T12:04:21.808Z,92.00
2022-10-11T12:07:22.395Z,92.00
2022-10-11T12:09:54.513Z,92.60
2022-10-11T12:12:33.310Z,91.70
2022-10-11T12:15:09.721Z,92.30
2022-10-11T12:17:55.981Z,90.40
2022-10-11T12:20:27.360Z,90.60
2022-10-11T12:23:00.058Z,91.00
2022-10-11T12:25:28.428Z,91.60
2022-10-11T12:28:00.990Z,90.90
2022-10-11T12:30:47.038Z,90.70
2022-10-11T12:33:32.830Z,90.70
2022-10-11T12:36:07.538Z,90.10
2022-10-11T12:38:39.916Z,90.40
2022-10-11T12:41:09.967Z,90.60
2022-10-11T12:44:07.705Z,89.60
2022-10-11T12:47:26.269Z,89.10
2022-10-11T12:50:10.254Z,88.90
2022-10-11T12:53:19.343Z,89.20
2022-10-11T12:55:59.992Z,90.40
2022-10-11T12:58:38.771Z,90.50
2022-10-11T13:01:14.058Z,90.80
2022-10-11T13:04:12.191Z,91.10
2022-10-11T13:06:46.399Z,90.90
2022-10-11T13:09:30.697Z,90.70
2022-10-11T13:12:17.992Z,90.90
2022-10-11T13:15:04.329Z,91.10
2022-10-11T13:17:38.382Z,90.50
2022-10-11T13:20:17.234Z,90.30
2022-10-11T13:22:55.209Z,89.90
2022-10-11T13:25:28.706Z,89.60
2022-10-11T13:27:59.469Z,89.30
2022-10-11T13:30:34.215Z,89.80
2022-10-11T13:33:05.897Z,89.90
2022-10-11T13:35:36.653Z,89.50
2022-10-11T13:38:08.229Z,89.50
2022-10-11T13:40:37.473Z,89.10
2022-10-11T13:43:06.035Z,89.20
2022-10-11T13:45:36.834Z,90.30
2022-10-11T13:48:04.993Z,90.20
2022-10-11T13:50:34.344Z,88.20
2022-10-11T13:53:04.746Z,88.10
2022-10-11T13:55:47.303Z,87.20
2022-10-11T13:58:36.655Z,88.30
2022-10-11T14:01:16.560Z,88.80
2022-10-11T14:03:53.522Z,88.30
2022-10-11T14:06:21.261Z,89.20
2022-10-11T14:08:50.747Z,88.20
2022-10-11T14:11:36.099Z,88.20
2022-10-11T14:14:31.231Z,88.10
2022-10-11T14:17:23.063Z,88.40
2022-10-11T14:20:15.523Z,88.10
2022-10-11T14:22:43.601Z,88.50
2022-10-11T14:25:11.669Z,89.60
2022-10-11T14:27:39.784Z,89.50
2022-10-11T14:30:25.549Z,89.60
2022-10-11T14:32:57.917Z,89.20
2022-10-11T14:35:30.977Z,89.70
2022-10-11T14:37:59.193Z,88.90
2022-10-11T14:40:29.945Z,90.00
2022-10-11T14:42:57.732Z,89.10
2022-10-11T14:45:25.387Z,89.40
2022-10-11T14:47:52.799Z,90.20
2022-10-11T14:50:25.996Z,90.30
2022-10-11T14:52:53.895Z,89.90
2022-10-11T14:55:21.696Z,90.70
2022-10-11T14:57:49.154Z,90.10
2022-10-11T15:00:26.118Z,89.60
2022-10-11T15:02:54.819Z,89.20
2022-10-11T15:05:27.689Z,89.30
2022-10-11T15:07:58.010Z,89.30
2022-10-11T15:10:43.623Z,90.10
2022-10-11T15:13:11.022Z,90.10
2022-10-11T15:15:41.217Z,90.70
2022-10-11T15:18:12.600Z,90.30
2022-10-11T15:20:42.896Z,89.70
2022-10-11T15:23:11.443Z,89.60
2022-10-11T15:25:40.768Z,90.00
2022-10-11T15:28:11.241Z,90.90
2022-10-11T15:30:41.585Z,90.70
2022-10-11T15:33:09.409Z,90.90
2022-10-11T15:35:36.871Z,90.80
2022-10-11T15:38:04.346Z,90.80
2022-10-11T15:40:35.372Z,90.70
2022-10-11T15:43:03.529Z,90.60
2022-10-11T15:45:31.038Z,90.80
2022-10-11T15:47:58.591Z,90.90
2022-10-11T15:50:34.774Z,90.70
2022-10-11T15:53:04.275Z,90.90
2022-10-11T15:55:34.094Z,90.90
2022-10-11T15:58:02.077Z,91.60
2022-10-11T16:00:30.207Z,92.00
2022-10-11T16:02:59.085Z,92.30
2022-10-11T16:05:28.321Z,92.40
2022-10-11T16:07:55.760Z,92.30
2022-10-11T16:10:23.306Z,92.90
2022-10-11T16:12:50.697Z,93.30
2022-10-11T16:15:18.157Z,93.20
2022-10-11T16:17:46.495Z,93.70
2022-10-11T16:20:14.529Z,93.80
2022-10-11T16:22:42.058Z,93.80
2022-10-11T16:25:09.449Z,94.20
2022-10-11T16:27:36.891Z,93.80
2022-10-11T16:30:04.965Z,93.90
2022-10-11T16:32:34.347Z,95.00
2022-10-11T16:35:01.781Z,94.30
2022-10-11T16:37:30.623Z,95.40
2022-10-11T16:39:57.998Z,96.40
2022-10-11T16:42:25.552Z,97.30
2022-10-11T16:44:53.437Z,97.00
2022-10-11T16:47:21.012Z,97.40
2022-10-11T16:49:48.543Z,98.30
2022-10-11T16:52:16.129Z,99.60
2022-10-11T16:54:45.369Z,99.00
2022-10-11T16:57:14.843Z,98.70
2022-10-11T16:59:42.396Z,99.00
2022-10-11T17:02:19.282Z,99.90
2022-10-11T17:04:46.749Z,99.90
2022-10-11T17:07:14.128Z,98.50
2022-10-11T17:09:44.325Z,99.90
2022-10-11T17:12:13.746Z,99.40
2022-10-11T17:14:41.712Z,99.90
2022-10-11T17:17:10.548Z,99.90
2022-10-11T17:19:45.087Z,99.90
2022-10-11T17:22:16.636Z,99.90
2022-10-11T17:24:44.489Z,99.90
2022-10-11T17:27:12.897Z,99.90
2022-10-11T17:29:40.529Z,99.90
2022-10-11T17:32:08.603Z,99.90
2022-10-11T17:34:36.054Z,99.90
2022-10-11T17:37:03.706Z,99.90
2022-10-11T17:39:31.124Z,99.90
2022-10-11T17:42:03.255Z,99.90
2022-10-11T17:44:30.627Z,99.90
2022-10-11T17:46:58.075Z,99.90
2022-10-11T17:49:25.751Z,99.90
2022-10-11T17:51:53.174Z,99.90
2022-10-11T17:54:20.643Z,99.90
2022-10-11T17:56:48.270Z,99.90
2022-10-11T17:59:17.497Z,99.90
2022-10-11T18:01:44.888Z,99.20
2022-10-11T18:04:16.897Z,98.40
2022-10-11T18:06:46.165Z,97.50
2022-10-11T18:09:16.168Z,97.10
2022-10-11T18:11:44.150Z,96.80
2022-10-11T18:14:11.811Z,96.50
2022-10-11T18:16:39.769Z,97.00
2022-10-11T18:19:13.490Z,96.80
2022-10-11T18:21:41.676Z,96.70
2022-10-11T18:24:14.910Z,96.50
2022-10-11T18:26:43.438Z,96.30
2022-10-11T18:29:12.472Z,96.20
2022-10-11T18:31:40.402Z,96.30
2022-10-11T18:34:10.847Z,96.30
2022-10-11T18:36:38.790Z,96.40
2022-10-11T18:39:08.844Z,99.10
2022-10-11T18:41:38.790Z,98.70
2022-10-11T18:44:09.219Z,99.90
2022-10-11T18:46:36.751Z,99.90
2022-10-11T18:49:04.670Z,99.90
2022-10-11T18:51:38.276Z,99.90
2022-10-11T18:54:07.495Z,99.90
2022-10-11T18:56:36.555Z,99.90
2022-10-11T18:59:05.038Z,99.90
2022-10-11T19:01:38.248Z,99.90
2022-10-11T19:04:08.115Z,99.90
2022-10-11T19:06:41.964Z,99.90
2022-10-11T19:09:12.760Z,99.90
2022-10-11T19:11:40.704Z,99.90
2022-10-11T19:14:14.520Z,99.90
2022-10-11T19:16:45.482Z,99.90
2022-10-11T19:19:13.551Z,99.90
2022-10-11T19:21:41.296Z,99.90
2022-10-11T19:24:09.293Z,99.90
2022-10-11T19:26:39.374Z,99.90
2022-10-11T19:29:08.098Z,99.90
2022-10-11T19:31:37.165Z,99.90
2022-10-11T19:34:04.746Z,99.90
2022-10-11T19:36:36.399Z,99.90
2022-10-11T19:39:05.939Z,99.90
2022-10-11T19:41:34.165Z,99.90
2022-10-11T19:44:01.559Z,99.90
2022-10-11T19:46:50.304Z,99.90
2022-10-11T19:49:20.234Z,99.90
2022-10-11T19:51:47.647Z,99.90
2022-10-11T19:54:15.469Z,99.90
2022-10-11T19:56:43.863Z,99.90
2022-10-11T19:59:12.633Z,99.90
2022-10-11T20:01:41.212Z,99.90
2022-10-11T20:04:27.417Z,99.90
2022-10-11T20:06:58.735Z,99.90
2022-10-11T20:09:30.544Z,99.90
2022-10-11T20:11:58.567Z,99.90
2022-10-11T20:14:26.186Z,99.90
2022-10-11T20:16:53.592Z,99.90
2022-10-11T20:19:26.205Z,99.90
2022-10-11T20:21:55.244Z,99.90
2022-10-11T20:24:22.676Z,99.90
2022-10-11T20:26:50.185Z,99.90
2022-10-11T20:29:17.777Z,99.90
2022-10-11T20:31:45.140Z,99.90
2022-10-11T20:34:13.271Z,99.90
2022-10-11T20:36:40.687Z,99.90
2022-10-11T20:39:08.219Z,99.90
2022-10-11T20:41:39.812Z,99.90
2022-10-11T20:44:08.858Z,99.90
2022-10-11T20:46:38.542Z,99.90
2022-10-11T20:49:09.085Z,99.90
2022-10-11T20:51:39.217Z,99.90
2022-10-11T20:54:07.028Z,99.90
2022-10-11T20:56:35.349Z,99.90
2022-10-11T20:59:03.261Z,99.90
2022-10-11T21:01:41.796Z,99.90
2022-10-11T21:04:17.708Z,99.90
2022-10-11T21:06:45.513Z,99.90
2022-10-11T21:09:15.586Z,99.90
2022-10-11T21:11:44.697Z,99.90
2022-10-11T21:14:12.160Z,99.90
2022-10-11T21:16:39.653Z,99.90
2022-10-11T21:19:07.108Z,99.90
2022-10-11T21:21:34.907Z,99.90
2022-10-11T21:24:02.753Z,99.90
2022-10-11T21:26:31.196Z,99.90
2022-10-11T21:29:03.954Z,99.90
2022-10-11T21:31:34.318Z,99.90
2022-10-11T21:34:03.297Z,99.90
2022-10-11T21:36:30.681Z,99.90
2022-10-11T21:38:58.078Z,99.90
2022-10-11T21:41:28.991Z,99.90
2022-10-11T21:43:56.551Z,99.90
2022-10-11T21:49:18.624Z,99.90
2022-10-11T21:51:46.132Z,99.90
2022-10-11T21:54:13.535Z,99.90
2022-10-11T21:56:41.558Z,99.90
2022-10-11T21:59:12.179Z,99.90
2022-10-11T22:01:41.355Z,99.90
2022-10-11T22:04:09.325Z,99.90
2022-10-11T22:06:37.476Z,99.90
2022-10-11T22:09:05.866Z,99.90
2022-10-11T22:11:33.310Z,99.90
2022-10-11T22:14:00.686Z,99.90
2022-10-11T22:16:28.125Z,99.90
2022-10-11T22:18:55.788Z,99.90
2022-10-11T22:21:24.755Z,99.90
2022-10-11T22:23:53.921Z,99.90
2022-10-11T22:26:30.621Z,99.90
2022-10-11T22:29:00.088Z,99.90
2022-10-11T22:31:27.844Z,99.90
2022-10-11T22:34:00.160Z,99.90
2022-10-11T22:36:30.416Z,99.90
2022-10-11T22:38:58.577Z,99.90
2022-10-11T22:41:26.041Z,99.90
2022-10-11T22:43:53.455Z,99.90
2022-10-11T22:46:20.882Z,99.90
2022-10-11T22:48:48.320Z,99.90
2022-10-11T22:51:15.740Z,99.90
2022-10-11T22:53:43.091Z,99.90
2022-10-11T22:56:11.218Z,99.90
2022-10-11T22:58:38.596Z,99.90
2022-10-11T23:01:10.038Z,99.90
2022-10-11T23:03:37.580Z,99.90
2022-10-11T23:06:05.643Z,99.90
2022-10-11T23:08:33.017Z,99.90
2022-10-11T23:11:07.664Z,99.90
2022-10-11T23:13:35.710Z,99.90
2022-10-11T23:16:11.042Z,99.90
2022-10-11T23:18:38.883Z,99.90
2022-10-11T23:21:07.168Z,99.90
2022-10-11T23:23:35.030Z,99.90
2022-10-11T23:26:14.061Z,99.90
2022-10-11T23:28:42.384Z,99.90
2022-10-11T23:31:18.358Z,99.90
2022-10-11T23:33:46.315Z,99.90
2022-10-11T23:36:24.617Z,99.90
2022-10-11T23:38:56.873Z,99.90
2022-10-11T23:41:25.415Z,99.90
2022-10-11T23:43:52.835Z,99.90
2022-10-11T23:46:20.325Z,99.90
2022-10-11T23:48:48.023Z,99.90
2022-10-11T23:51:16.062Z,99.90
2022-10-11T23:53:43.590Z,99.90
2022-10-11T23:56:11.648Z,99.90
2022-10-11T23:58:39.088Z,99.90
